Time;durP1;ratioP1;P1;durP2;ratioP2;P2;SDS_P1;SDS_P2;PMS_P1;PMS_P2;Temp;Humidity;BMP_temperature;BMP_pressure;BME280_temperature;BME280_humidity;BME280_pressure;Samples;Min_cycle;Max_cycle;Signal;HPM_P1;HPM_P2
2023/07/04 00:01:23;;;;;;;3.05;1.48;;;;;;;27.76;32.19;101043.00;5051142;27;96906;-76
2023/07/04 00:03:55;;;;;;;2.58;1.40;;;;;;;27.76;32.52;101036.66;5041562;27;96686;-76
2023/07/04 00:06:25;;;;;;;2.05;1.40;;;;;;;27.74;32.12;101039.63;5049790;27;97164;-76
2023/07/04 00:08:52;;;;;;;3.30;1.60;;;;;;;27.74;32.06;101031.34;5051971;27;97608;-76
2023/07/04 00:11:19;;;;;;;1.80;1.10;;;;;;;27.75;32.17;101034.94;5052118;27;97259;-76
2023/07/04 00:13:47;;;;;;;2.88;1.50;;;;;;;27.75;32.25;101032.19;5052150;27;96740;-76
2023/07/04 00:16:14;;;;;;;2.35;1.20;;;;;;;27.74;32.30;101031.34;5051623;27;96737;-76
2023/07/04 00:18:41;;;;;;;2.38;1.48;;;;;;;27.74;32.27;101028.59;5051260;27;96730;-76
2023/07/04 00:21:14;;;;;;;2.03;1.17;;;;;;;27.75;32.36;101026.66;5041521;27;97118;-76
2023/07/04 00:23:45;;;;;;;3.03;1.30;;;;;;;27.74;32.36;101024.97;5050290;27;96781;-76
2023/07/04 00:26:16;;;;;;;1.92;1.20;;;;;;;27.73;32.37;101020.53;5052004;27;96840;-76
2023/07/04 00:28:43;;;;;;;1.92;1.20;;;;;;;27.74;32.31;101011.19;5048395;27;96947;-76
2023/07/04 00:31:14;;;;;;;2.83;1.30;;;;;;;27.73;32.37;101007.56;5042379;27;96795;-76
2023/07/04 00:33:40;;;;;;;2.33;1.17;;;;;;;27.72;32.36;101008.63;5050080;27;96993;-76
2023/07/04 00:36:09;;;;;;;3.05;1.45;;;;;;;27.74;32.19;101002.91;5032078;27;100143;-76
2023/07/04 00:38:37;;;;;;;2.08;1.15;;;;;;;27.73;32.30;101009.47;5032806;27;97732;-76
2023/07/04 00:41:16;;;;;;;1.65;1.30;;;;;;;27.74;32.18;101011.19;5050238;27;96632;-76
2023/07/04 00:43:46;;;;;;;2.63;1.10;;;;;;;27.72;32.35;101005.88;5037428;27;97327;-76
2023/07/04 00:46:15;;;;;;;2.53;1.60;;;;;;;27.71;32.42;101004.19;5049535;27;99326;-76
2023/07/04 00:48:45;;;;;;;2.03;1.17;;;;;;;27.72;32.55;101005.88;5050706;27;97347;-76
2023/07/04 00:51:21;;;;;;;2.08;1.17;;;;;;;27.72;32.32;101003.13;5051204;27;96718;-76
2023/07/04 00:53:53;;;;;;;2.88;1.48;;;;;;;27.72;32.48;100996.75;5050767;27;96962;-76
2023/07/04 00:56:25;;;;;;;1.95;1.10;;;;;;;27.71;32.66;101001.41;5050374;27;96797;-76
2023/07/04 00:58:59;;;;;;;1.75;1.05;;;;;;;27.71;32.44;100993.13;5051628;27;96963;-76
2023/07/04 01:01:27;;;;;;;2.53;1.25;;;;;;;27.70;32.53;100983.16;5047495;27;96784;-76
2023/07/04 01:03:57;;;;;;;1.85;1.10;;;;;;;27.71;32.50;100989.53;5050688;27;96873;-76
2023/07/04 01:06:44;;;;;;;1.20;0.90;;;;;;;27.71;32.47;100990.38;5035275;27;96890;-76
2023/07/04 01:09:13;;;;;;;1.88;0.98;;;;;;;27.70;32.46;100985.09;5045319;27;96695;-76
2023/07/04 01:11:42;;;;;;;1.73;1.20;;;;;;;27.69;32.52;100984.22;5051017;27;96954;-76
2023/07/04 01:14:20;;;;;;;1.02;0.80;;;;;;;27.69;32.43;100989.75;5031647;27;96741;-76
2023/07/04 01:16:47;;;;;;;1.63;1.10;;;;;;;27.69;32.39;100992.50;5051013;27;97092;-76
2023/07/04 01:19:28;;;;;;;2.05;1.10;;;;;;;27.70;32.51;100993.34;5050544;27;97486;-76
2023/07/04 01:22:07;;;;;;;1.75;1.00;;;;;;;27.68;32.48;100988.06;5048544;27;97408;-76
2023/07/04 01:24:54;;;;;;;1.88;1.00;;;;;;;27.69;32.44;100984.22;5049802;27;96743;-76
2023/07/04 01:27:22;;;;;;;1.80;1.17;;;;;;;27.67;32.42;100980.84;5049399;27;96772;-76
2023/07/04 01:29:49;;;;;;;2.33;1.20;;;;;;;27.68;32.63;100995.50;5049458;27;97349;-76
2023/07/04 01:32:17;;;;;;;2.80;1.30;;;;;;;27.68;32.91;100992.72;5051324;27;96868;-76
2023/07/04 01:34:45;;;;;;;2.47;1.13;;;;;;;27.66;32.26;100987.44;5050639;27;97427;-76
2023/07/04 01:37:13;;;;;;;2.58;1.10;;;;;;;27.68;32.57;100990.81;5048925;27;100477;-77
2023/07/04 01:39:40;;;;;;;2.42;1.17;;;;;;;27.67;32.54;100986.38;5048836;27;98360;-76
2023/07/04 01:42:07;;;;;;;1.52;0.93;;;;;;;27.67;32.62;100986.38;5041666;27;96821;-77
2023/07/04 01:44:33;;;;;;;1.77;0.98;;;;;;;27.68;32.67;100993.56;5035800;27;97206;-76
2023/07/04 01:47:00;;;;;;;1.58;0.95;;;;;;;27.67;32.43;100994.66;5044181;27;96905;-77
2023/07/04 01:49:27;;;;;;;1.90;1.10;;;;;;;27.68;32.69;100995.50;5051171;27;97428;-76
2023/07/04 01:51:53;;;;;;;2.22;1.10;;;;;;;27.67;32.72;100988.28;5048482;27;96695;-76
2023/07/04 01:54:20;;;;;;;1.58;0.93;;;;;;;27.67;32.77;100994.66;5050521;27;97218;-76
2023/07/04 01:56:53;;;;;;;1.67;0.85;;;;;;;27.67;32.67;100994.66;5048381;27;101591;-77
2023/07/04 01:59:21;;;;;;;1.50;0.98;;;;;;;27.66;32.74;100998.47;5048393;27;99505;-77
2023/07/04 02:01:48;;;;;;;1.02;0.82;;;;;;;27.66;32.76;100992.94;5032831;27;96785;-76
2023/07/04 02:04:15;;;;;;;1.50;0.82;;;;;;;27.66;32.70;100997.63;5048300;27;96744;-77
2023/07/04 02:06:42;;;;;;;1.70;1.20;;;;;;;27.66;32.67;101012.25;5050340;27;97667;-77
2023/07/04 02:09:09;;;;;;;3.17;1.10;;;;;;;27.67;32.60;101010.34;5050133;27;97923;-76
2023/07/04 02:11:35;;;;;;;1.60;1.08;;;;;;;27.66;32.86;101012.25;5050350;27;96678;-76
2023/07/04 02:14:02;;;;;;;2.15;1.00;;;;;;;27.66;32.55;101014.19;5048517;27;96644;-77
2023/07/04 02:16:28;;;;;;;2.03;1.10;;;;;;;27.66;32.74;101014.19;5048302;27;99485;-76
2023/07/04 02:18:55;;;;;;;1.35;0.80;;;;;;;27.66;32.72;101001.22;5049723;27;96876;-76
2023/07/04 02:21:26;;;;;;;1.70;1.10;;;;;;;27.65;32.79;101012.47;5032335;27;96651;-76
2023/07/04 02:23:54;;;;;;;1.40;0.93;;;;;;;27.65;32.69;101004.19;5047908;27;96995;-77
2023/07/04 02:26:21;;;;;;;1.30;0.85;;;;;;;27.66;32.79;101005.91;5031704;27;96858;-76
2023/07/04 02:28:49;;;;;;;1.45;0.93;;;;;;;27.66;32.69;101011.41;5047499;27;96661;-76
2023/07/04 02:31:15;;;;;;;1.75;1.00;;;;;;;27.64;32.71;101003.34;5059506;27;96672;-76
2023/07/04 02:33:42;;;;;;;1.65;1.00;;;;;;;27.64;32.75;101008.88;5050022;27;96747;-77
2023/07/04 02:36:11;;;;;;;2.05;1.10;;;;;;;27.64;32.75;101006.13;5048300;27;100026;-76
2023/07/04 02:38:39;;;;;;;2.38;1.05;;;;;;;27.64;32.69;101011.63;5044015;27;97877;-77
2023/07/04 02:41:08;;;;;;;1.13;0.90;;;;;;;27.64;32.70;101013.53;5046802;27;97196;-77
2023/07/04 02:43:36;;;;;;;1.70;1.00;;;;;;;27.63;32.85;101009.09;5044839;27;97057;-77
2023/07/04 02:46:04;;;;;;;1.92;0.80;;;;;;;27.62;32.85;101016.53;5048244;27;100780;-77
2023/07/04 02:48:32;;;;;;;1.95;0.82;;;;;;;27.64;32.69;101014.41;5051753;27;99118;-76
2023/07/04 02:51:00;;;;;;;2.50;1.10;;;;;;;27.63;32.76;101004.41;5048386;27;96469;-77
2023/07/04 02:53:27;;;;;;;2.25;0.70;;;;;;;27.62;32.89;100999.97;5035716;27;97569;-77
2023/07/04 02:55:55;;;;;;;1.48;0.93;;;;;;;27.62;32.76;100993.59;5045981;27;97537;-76
2023/07/04 02:58:26;;;;;;;1.45;0.68;;;;;;;27.63;32.99;101011.84;5028643;27;99398;-77
2023/07/04 03:00:53;;;;;;;2.03;0.80;;;;;;;27.61;32.93;100998.28;5049935;27;97473;-77
2023/07/04 03:03:22;;;;;;;1.00;0.80;;;;;;;27.62;32.70;101004.63;5034924;27;96711;-76
2023/07/04 03:05:50;;;;;;;1.25;0.80;;;;;;;27.62;32.75;100993.59;5050749;27;100157;-77
2023/07/04 03:08:17;;;;;;;1.35;0.82;;;;;;;27.61;32.50;100984.47;5034791;27;99356;-77
2023/07/04 03:10:46;;;;;;;2.65;1.00;;;;;;;27.61;32.98;100981.72;5051979;27;97475;-77
2023/07/04 03:13:15;;;;;;;2.95;1.13;;;;;;;27.61;32.83;100990.00;5050278;27;97106;-76
2023/07/04 03:15:43;;;;;;;1.92;0.93;;;;;;;27.61;32.80;100984.47;5050048;27;99354;-77
2023/07/04 03:18:10;;;;;;;1.15;0.80;;;;;;;27.60;32.88;100991.03;5034172;27;97384;-77
2023/07/04 03:20:39;;;;;;;1.70;1.00;;;;;;;27.61;33.01;100994.66;5051415;27;97493;-77
2023/07/04 03:23:06;;;;;;;1.60;0.88;;;;;;;27.60;32.68;100988.25;5048366;27;96926;-76
2023/07/04 03:25:33;;;;;;;1.38;0.85;;;;;;;27.61;32.63;100991.91;5050159;27;100259;-76
2023/07/04 03:27:59;;;;;;;1.02;0.77;;;;;;;27.61;32.72;100998.28;5048898;27;99352;-76
2023/07/04 03:30:28;;;;;;;1.25;0.80;;;;;;;27.60;32.88;100999.31;5051446;27;96706;-77
2023/07/04 03:33:01;;;;;;;1.10;0.70;;;;;;;27.60;32.87;101004.81;5050000;27;96840;-76
2023/07/04 03:35:28;;;;;;;1.75;0.80;;;;;;;27.60;33.10;101001.22;5051553;27;97281;-77
2023/07/04 03:37:56;;;;;;;0.90;0.70;;;;;;;27.59;32.89;100997.59;5044877;27;99373;-77
2023/07/04 03:40:22;;;;;;;1.85;0.80;;;;;;;27.60;32.95;101001.22;5049836;27;96960;-76
2023/07/04 03:42:49;;;;;;;2.58;1.20;;;;;;;27.59;33.04;101008.66;5049530;27;96874;-77
2023/07/04 03:45:16;;;;;;;1.77;0.77;;;;;;;27.58;32.93;100998.69;5051336;27;96997;-77
2023/07/04 03:47:45;;;;;;;1.70;0.90;;;;;;;27.59;32.80;101003.13;5047765;27;97276;-77
2023/07/04 03:50:14;;;;;;;1.45;0.85;;;;;;;27.59;33.00;101005.88;5034879;27;97563;-77
2023/07/04 03:52:42;;;;;;;1.63;0.77;;;;;;;27.58;33.38;101012.47;5048315;27;97164;-77
2023/07/04 03:55:09;;;;;;;1.15;0.70;;;;;;;27.58;32.96;101004.19;5050366;27;99326;-76
2023/07/04 03:57:35;;;;;;;1.25;1.00;;;;;;;27.58;33.07;101015.22;5030458;27;100109;-77
2023/07/04 04:00:06;;;;;;;1.50;0.80;;;;;;;27.58;33.08;101008.88;5042211;27;96734;-77
2023/07/04 04:02:52;;;;;;;1.80;0.88;;;;;;;27.57;33.06;101012.69;5039186;27;97561;-76
2023/07/04 04:05:19;;;;;;;1.00;0.60;;;;;;;27.57;33.06;101016.28;5051651;27;97832;-77
2023/07/04 04:07:48;;;;;;;1.10;0.75;;;;;;;27.57;33.17;101016.28;5051069;27;96957;-77
2023/07/04 04:10:16;;;;;;;2.60;0.98;;;;;;;27.57;32.96;101018.19;5050384;27;96896;-76
2023/07/04 04:12:43;;;;;;;1.67;0.80;;;;;;;27.57;33.11;101021.81;5051542;27;96572;-77
2023/07/04 04:15:10;;;;;;;2.47;1.05;;;;;;;27.56;33.28;101011.84;5049583;27;96809;-76
2023/07/04 04:17:37;;;;;;;1.67;0.77;;;;;;;27.57;33.22;101032.84;5049201;27;97471;-76
2023/07/04 04:20:06;;;;;;;1.42;0.68;;;;;;;27.56;33.01;101028.38;5051543;27;97415;-77
2023/07/04 04:22:33;;;;;;;1.35;0.70;;;;;;;27.56;33.02;101025.63;5033402;27;96823;-77
2023/07/04 04:25:00;;;;;;;1.88;0.90;;;;;;;27.57;33.33;101019.06;5048741;27;98109;-77
2023/07/04 04:27:27;;;;;;;1.23;0.73;;;;;;;27.56;33.02;101017.34;5051890;27;96713;-77
2023/07/04 04:29:54;;;;;;;1.83;0.65;;;;;;;27.56;32.99;101017.34;5045680;27;96983;-77
2023/07/04 04:32:22;;;;;;;1.17;0.80;;;;;;;27.56;33.12;101016.50;5051797;27;96802;-77
2023/07/04 04:34:48;;;;;;;1.42;0.85;;;;;;;27.54;33.07;101014.81;5043271;27;97102;-77
2023/07/04 04:37:16;;;;;;;1.30;0.90;;;;;;;27.56;33.21;101020.13;5045706;27;96878;-76
2023/07/04 04:39:44;;;;;;;1.50;0.90;;;;;;;27.57;33.18;101026.47;5051361;27;96783;-77
2023/07/04 04:42:14;;;;;;;2.08;1.05;;;;;;;27.55;33.18;101029.47;5045730;27;96866;-76
2023/07/04 04:44:41;;;;;;;1.05;0.63;;;;;;;27.55;33.19;101029.47;5037681;27;99770;-77
2023/07/04 04:47:08;;;;;;;1.80;1.00;;;;;;;27.55;33.08;101029.47;5051972;27;96859;-76
2023/07/04 04:49:35;;;;;;;1.50;0.98;;;;;;;27.55;33.04;101037.72;5045930;27;96799;-76
2023/07/04 04:52:02;;;;;;;0.85;0.55;;;;;;;27.55;33.13;101037.72;5046304;27;96917;-77
2023/07/04 04:54:30;;;;;;;1.42;0.77;;;;;;;27.55;33.35;101032.22;5047428;27;97132;-77
2023/07/04 04:56:56;;;;;;;1.08;0.60;;;;;;;27.54;33.34;101036.88;5048383;27;97396;-77
2023/07/04 04:59:23;;;;;;;1.35;0.75;;;;;;;27.55;33.14;101040.50;5048274;27;97067;-77
2023/07/04 05:01:49;;;;;;;1.38;0.80;;;;;;;27.56;33.36;101044.09;5046439;27;96836;-76
2023/07/04 05:04:16;;;;;;;1.10;0.85;;;;;;;27.55;33.11;101040.50;5043427;27;99684;-76
2023/07/04 05:06:43;;;;;;;1.38;0.88;;;;;;;27.54;33.20;101036.88;5044231;27;98871;-76
2023/07/04 05:09:09;;;;;;;1.88;0.80;;;;;;;27.55;33.14;101043.25;5050917;27;96902;-77
2023/07/04 05:11:36;;;;;;;0.98;0.60;;;;;;;27.56;33.37;101057.88;5046198;27;97698;-76
2023/07/04 05:14:04;;;;;;;1.58;0.90;;;;;;;27.55;33.31;101051.53;5046802;27;97546;-76
2023/07/04 05:16:31;;;;;;;1.30;0.70;;;;;;;27.54;33.58;101045.16;5046899;27;97010;-77
2023/07/04 05:18:57;;;;;;;1.35;0.70;;;;;;;27.55;33.68;101051.53;5044668;27;96828;-76
2023/07/04 05:21:24;;;;;;;1.55;0.85;;;;;;;27.54;33.21;101052.59;5042588;27;96699;-77
2023/07/04 05:23:52;;;;;;;1.25;0.88;;;;;;;27.54;33.11;101049.84;5048718;27;97621;-77
2023/07/04 05:26:27;;;;;;;1.85;0.90;;;;;;;27.55;33.34;101048.75;5050876;27;97394;-76
2023/07/04 05:28:55;;;;;;;;;;;;;;;27.49;33.37;101049.59;5045443;27;97465;-76
2023/07/04 05:31:24;;;;;;;1.27;0.80;;;;;;;27.50;33.37;101045.81;5039451;27;96801;-77
2023/07/04 05:33:52;;;;;;;1.45;0.80;;;;;;;27.51;33.35;101053.03;5049775;27;97251;-77
2023/07/04 05:36:20;;;;;;;1.25;0.70;;;;;;;27.52;33.44;101054.72;5050811;27;97223;-77
2023/07/04 05:38:51;;;;;;;2.15;1.08;;;;;;;27.52;33.58;101047.28;5027657;28;96874;-77
2023/07/04 05:41:20;;;;;;;1.80;0.95;;;;;;;27.52;33.52;101051.97;5046572;27;96966;-76
2023/07/04 05:43:48;;;;;;;1.63;0.70;;;;;;;27.52;33.23;101049.19;5049840;27;97728;-77
2023/07/04 05:46:16;;;;;;;1.73;0.90;;;;;;;27.53;33.41;101053.66;5049038;27;96906;-76
2023/07/04 05:48:43;;;;;;;1.95;0.77;;;;;;;27.53;33.47;101056.41;5049376;27;96768;-77
2023/07/04 05:51:12;;;;;;;1.88;0.95;;;;;;;27.53;33.19;101050.88;5051652;27;97356;-76
2023/07/04 05:53:41;;;;;;;1.98;0.90;;;;;;;27.53;33.35;101060.03;5048768;27;96810;-76
2023/07/04 05:56:12;;;;;;;1.45;0.80;;;;;;;27.53;33.36;101060.03;5050056;27;97207;-76
2023/07/04 05:58:41;;;;;;;1.60;0.80;;;;;;;27.53;33.60;101053.66;5049189;27;99030;-77
2023/07/04 06:01:20;;;;;;;1.45;1.10;;;;;;;27.53;33.29;101060.03;5059035;27;96867;-77
2023/07/04 06:03:47;;;;;;;1.65;0.90;;;;;;;27.52;33.47;101061.06;5045227;27;98097;-77
2023/07/04 06:06:20;;;;;;;1.85;0.90;;;;;;;27.52;33.53;101058.31;5051014;27;97794;-76
2023/07/04 06:08:48;;;;;;;1.80;1.02;;;;;;;27.52;33.55;101054.72;5049724;27;97039;-77
2023/07/04 06:11:15;;;;;;;2.67;1.02;;;;;;;27.53;33.55;101067.44;5050763;27;96784;-76
2023/07/04 06:13:42;;;;;;;0.95;0.70;;;;;;;27.52;33.44;101063.00;5047661;27;97609;-76
2023/07/04 06:16:09;;;;;;;1.40;1.00;;;;;;;27.52;33.38;101063.00;5050618;27;97264;-76
2023/07/04 06:18:35;;;;;;;1.73;0.80;;;;;;;27.52;33.40;101069.34;5043629;27;96662;-76
2023/07/04 06:21:05;;;;;;;4.32;1.00;;;;;;;27.54;33.54;101069.16;5047177;27;98506;-76
2023/07/04 06:23:31;;;;;;;1.40;0.73;;;;;;;27.53;33.55;101078.47;5034539;27;96775;-77
2023/07/04 06:25:58;;;;;;;2.63;1.10;;;;;;;27.53;33.69;101070.22;5035547;27;99951;-76
2023/07/04 06:28:24;;;;;;;2.22;1.17;;;;;;;27.53;33.50;101082.09;5044470;27;97018;-76
2023/07/04 06:30:51;;;;;;;2.40;1.13;;;;;;;27.53;33.45;101087.59;5049557;27;96964;-76
2023/07/04 06:33:18;;;;;;;2.20;1.20;;;;;;;27.53;33.66;101084.00;5044371;27;98961;-76
2023/07/04 06:35:44;;;;;;;1.98;1.10;;;;;;;27.54;33.58;101082.94;5040904;27;97899;-76
2023/07/04 06:38:11;;;;;;;1.40;0.90;;;;;;;27.53;33.58;101087.59;5045259;27;96788;-76
2023/07/04 06:40:38;;;;;;;1.20;0.90;;;;;;;27.54;33.92;101096.72;5044576;27;96899;-76
2023/07/04 06:43:05;;;;;;;2.13;0.98;;;;;;;27.55;33.65;101101.19;5044767;27;97057;-76
2023/07/04 06:45:32;;;;;;;2.10;0.93;;;;;;;27.54;33.72;101096.72;5068562;27;97761;-75
2023/07/04 06:47:59;;;;;;;2.25;1.30;;;;;;;27.54;33.51;101097.59;5051373;27;97179;-76
2023/07/04 06:50:26;;;;;;;2.28;1.10;;;;;;;27.54;33.78;101107.75;5041421;27;97393;-76
2023/07/04 06:52:52;;;;;;;2.13;1.20;;;;;;;27.54;33.68;101105.84;5029792;27;97514;-76
2023/07/04 06:55:20;;;;;;;2.15;1.23;;;;;;;27.55;33.82;101103.94;5049412;27;98107;-76
2023/07/04 06:57:47;;;;;;;2.60;1.20;;;;;;;27.55;33.79;101101.19;5053175;27;96658;-77
2023/07/04 07:00:16;;;;;;;1.63;1.00;;;;;;;27.55;33.85;101095.66;5043513;27;98778;-76
2023/07/04 07:02:42;;;;;;;3.72;1.40;;;;;;;27.55;33.81;101112.22;5045743;27;96871;-77
2023/07/04 07:05:10;;;;;;;3.08;1.35;;;;;;;27.56;33.91;101110.31;5047734;27;96752;-76
2023/07/04 07:07:39;;;;;;;2.83;1.35;;;;;;;27.56;33.77;101111.16;5043343;27;96772;-77
2023/07/04 07:10:06;;;;;;;1.95;1.00;;;;;;;27.56;33.74;101119.44;5050704;27;96774;-76
2023/07/04 07:12:33;;;;;;;3.20;1.60;;;;;;;27.56;33.98;101116.69;5043510;27;96709;-77
2023/07/04 07:14:59;;;;;;;3.35;1.35;;;;;;;27.57;34.02;101132.16;5044921;27;96872;-76
2023/07/04 07:17:26;;;;;;;3.58;1.45;;;;;;;27.57;34.04;101134.94;5045685;27;96837;-77
2023/07/04 07:19:53;;;;;;;3.60;1.70;;;;;;;27.56;33.91;101127.72;5047467;27;96613;-76
2023/07/04 07:22:22;;;;;;;3.40;1.40;;;;;;;27.57;34.06;101128.56;5044228;27;96810;-77
2023/07/04 07:24:48;;;;;;;2.78;1.50;;;;;;;27.57;34.11;101118.38;5047335;27;99429;-76
2023/07/04 07:27:15;;;;;;;4.15;1.55;;;;;;;27.58;34.05;101133.03;5043216;27;96586;-76
2023/07/04 07:29:41;;;;;;;4.65;1.48;;;;;;;27.58;34.11;101120.06;5051527;27;96808;-76
2023/07/04 07:32:09;;;;;;;4.82;1.95;;;;;;;27.58;34.07;101120.06;5045957;27;97100;-76
2023/07/04 07:34:36;;;;;;;4.53;1.48;;;;;;;27.58;34.03;101120.06;5041791;27;97296;-77
2023/07/04 07:37:03;;;;;;;3.05;1.48;;;;;;;27.58;34.02;101125.59;5045537;27;96818;-77
2023/07/04 07:39:30;;;;;;;5.03;1.60;;;;;;;27.58;34.21;101128.34;5044258;27;96824;-77
2023/07/04 07:41:56;;;;;;;3.60;1.50;;;;;;;27.59;34.08;101132.81;5038048;27;98000;-76
2023/07/04 07:44:23;;;;;;;4.30;1.80;;;;;;;27.59;34.13;101140.22;5052018;27;96717;-77
2023/07/04 07:46:49;;;;;;;5.85;1.90;;;;;;;27.59;34.17;101138.31;5030189;27;96634;-77
2023/07/04 07:49:16;;;;;;;4.38;1.83;;;;;;;27.60;34.21;101133.66;5053205;27;96749;-76
2023/07/04 07:51:43;;;;;;;3.58;1.30;;;;;;;27.60;34.28;101133.66;5052258;27;97932;-76
2023/07/04 07:54:10;;;;;;;3.42;1.70;;;;;;;27.60;34.24;101134.50;5052545;27;96740;-77
2023/07/04 07:56:40;;;;;;;4.50;1.77;;;;;;;27.61;34.26;101139.00;5041605;27;97260;-75
2023/07/04 07:59:07;;;;;;;3.40;1.83;;;;;;;27.60;34.36;101139.16;5041059;27;97447;-75
2023/07/04 08:01:34;;;;;;;4.30;1.58;;;;;;;27.61;34.33;101138.13;5039660;27;98865;-75
2023/07/04 08:04:02;;;;;;;3.65;1.75;;;;;;;27.60;34.30;101137.25;5034338;27;96908;-74
2023/07/04 08:06:30;;;;;;;3.85;1.70;;;;;;;27.61;34.14;101135.38;5036756;27;96979;-76
2023/07/04 08:08:59;;;;;;;4.55;1.80;;;;;;;27.61;34.35;101130.72;5043524;27;96852;-75
2023/07/04 08:11:26;;;;;;;3.83;1.67;;;;;;;27.61;34.14;101136.22;5039013;27;97123;-77
2023/07/04 08:13:53;;;;;;;3.17;1.80;;;;;;;27.62;34.29;101137.06;5025436;27;99450;-77
2023/07/04 08:16:25;;;;;;;3.92;1.50;;;;;;;27.62;34.24;101143.44;5036035;27;96994;-77
2023/07/04 08:18:51;;;;;;;3.10;1.65;;;;;;;27.61;34.15;101132.63;5038307;27;96871;-77
2023/07/04 08:21:18;;;;;;;5.05;1.38;;;;;;;27.63;34.41;101133.25;5042717;27;97623;-77
2023/07/04 08:23:45;;;;;;;4.30;1.80;;;;;;;27.63;34.18;101139.63;5047353;27;97332;-77
2023/07/04 08:26:20;;;;;;;3.42;1.70;;;;;;;27.63;34.15;101142.38;5051544;27;97243;-76
2023/07/04 08:28:47;;;;;;;5.70;2.33;;;;;;;27.62;34.26;101151.72;5041562;27;96775;-77
2023/07/04 08:31:18;;;;;;;5.57;2.22;;;;;;;27.62;34.29;101148.97;5048595;27;97750;-77
2023/07/04 08:33:46;;;;;;;5.30;2.15;;;;;;;27.62;34.32;101146.22;5041122;27;97999;-77
2023/07/04 08:36:15;;;;;;;5.78;2.17;;;;;;;27.65;34.16;101158.72;5046213;27;96904;-77
2023/07/04 08:38:42;;;;;;;3.67;1.83;;;;;;;27.63;34.30;101158.94;5049319;27;96972;-77
2023/07/04 08:41:39;;;;;;;4.88;1.70;;;;;;;27.64;34.26;101157.88;5047598;27;97739;-77
2023/07/04 08:44:20;;;;;;;4.00;1.92;;;;;;;27.63;34.38;101161.69;5041712;27;97849;-77
2023/07/04 08:46:50;;;;;;;4.40;1.90;;;;;;;27.64;34.17;101146.00;5032527;27;96861;-77
2023/07/04 08:49:35;;;;;;;6.55;1.90;;;;;;;27.65;34.31;101142.16;5044793;27;96986;-76
2023/07/04 08:52:05;;;;;;;;;;;;;;;27.59;34.22;101148.50;5040469;27;98033;-76
2023/07/04 08:54:34;;;;;;;4.03;1.88;;;;;;;27.59;34.36;101143.00;5049387;27;99780;-77
2023/07/04 08:57:11;;;;;;;4.60;2.00;;;;;;;27.61;34.37;101138.13;5043969;27;96895;-77
2023/07/04 08:59:40;;;;;;;3.53;1.90;;;;;;;27.62;34.36;101142.59;5029857;27;96813;-77
2023/07/04 09:02:32;;;;;;;6.22;2.22;;;;;;;27.62;34.42;101142.59;5030843;27;97274;-77
2023/07/04 09:05:37;;;;;;;3.28;1.55;;;;;;;27.64;34.31;101149.59;5042155;27;96775;-76
2023/07/04 09:08:26;;;;;;;4.25;1.88;;;;;;;27.62;34.38;101151.72;5041717;27;97978;-77
2023/07/04 09:10:58;;;;;;;6.40;2.00;;;;;;;27.62;34.38;101160.00;5039100;27;97007;-77
2023/07/04 09:13:30;;;;;;;4.18;1.92;;;;;;;27.63;34.17;101167.22;5041695;27;96816;-77
2023/07/04 09:16:01;;;;;;;3.92;2.08;;;;;;;27.65;34.37;101172.53;5046493;27;97563;-76
2023/07/04 09:18:42;;;;;;;3.92;1.50;;;;;;;27.65;34.28;101165.09;5048991;27;97236;-75
2023/07/04 09:21:15;;;;;;;3.53;1.73;;;;;;;27.64;34.30;101166.16;5051356;27;97297;-75
2023/07/04 09:23:44;;;;;;;4.43;2.20;;;;;;;27.65;34.29;101172.53;5048370;27;98421;-75
2023/07/04 09:26:17;;;;;;;4.25;1.90;;;;;;;27.66;34.26;101183.34;5045690;27;96963;-75
2023/07/04 09:28:47;;;;;;;5.63;2.00;;;;;;;27.66;34.24;101182.50;5037301;27;97379;-75
2023/07/04 09:31:22;;;;;;;3.88;1.70;;;;;;;27.67;34.36;101176.78;5046004;27;96993;-75
2023/07/04 09:33:52;;;;;;;2.60;1.50;;;;;;;27.66;34.29;101180.59;5048711;27;98238;-75
2023/07/04 09:36:30;;;;;;;3.15;1.60;;;;;;;27.67;34.25;101186.97;5045276;27;98536;-75
2023/07/04 09:38:58;;;;;;;3.60;1.50;;;;;;;27.68;34.28;101191.41;5040641;27;96706;-77
2023/07/04 09:41:27;;;;;;;3.05;1.65;;;;;;;27.68;34.19;101199.69;5045721;27;96610;-78
2023/07/04 09:43:55;;;;;;;3.63;1.50;;;;;;;27.69;34.16;101210.50;5018189;27;100677;-77
2023/07/04 09:46:28;;;;;;;3.85;1.70;;;;;;;27.69;34.30;101216.03;5032228;27;98515;-77
2023/07/04 09:49:15;;;;;;;5.05;1.55;;;;;;;27.69;34.23;101198.63;5049384;27;96775;-77
2023/07/04 09:51:42;;;;;;;4.25;1.60;;;;;;;27.68;34.11;101196.94;5044680;27;97252;-78
2023/07/04 09:54:14;;;;;;;5.95;1.95;;;;;;;27.69;34.16;101185.69;5017788;27;100900;-78
2023/07/04 09:56:41;;;;;;;4.57;2.00;;;;;;;27.70;34.24;101200.31;5046244;27;96690;-76
2023/07/04 09:59:11;;;;;;;3.70;1.77;;;;;;;27.70;34.28;101197.56;5041886;27;96680;-77
2023/07/04 10:01:40;;;;;;;2.53;1.65;;;;;;;27.70;34.32;101201.19;5050979;27;96858;-78
2023/07/04 10:04:09;;;;;;;2.92;1.70;;;;;;;27.70;34.05;101197.56;5047540;27;97338;-77
2023/07/04 10:06:38;;;;;;;3.78;1.67;;;;;;;27.70;34.09;101186.53;5047849;27;96631;-76
2023/07/04 10:09:19;;;;;;;3.40;1.75;;;;;;;27.71;33.91;101191.00;5047360;27;96840;-78
2023/07/04 10:11:49;;;;;;;4.25;2.00;;;;;;;27.70;34.24;101186.53;5038962;27;96722;-75
2023/07/04 10:14:17;;;;;;;4.32;1.90;;;;;;;27.70;34.18;101192.91;5042553;27;96784;-75
2023/07/04 10:16:50;;;;;;;5.07;2.10;;;;;;;27.72;34.04;101195.44;5046575;27;97465;-75
2023/07/04 10:19:22;;;;;;;4.45;1.55;;;;;;;27.70;33.94;101192.91;5045800;27;97742;-75
2023/07/04 10:21:52;;;;;;;4.32;1.80;;;;;;;27.70;33.93;101184.63;5048988;27;96986;-75
2023/07/04 10:24:23;;;;;;;6.00;1.95;;;;;;;27.70;33.82;101192.91;5039739;27;98592;-75
2023/07/04 10:27:03;;;;;;;4.53;1.97;;;;;;;27.71;33.87;101182.72;5045507;27;97066;-76
2023/07/04 10:29:41;;;;;;;3.75;2.00;;;;;;;27.72;33.80;101184.41;5034261;27;96655;-75
2023/07/04 10:32:14;;;;;;;5.03;1.90;;;;;;;27.71;33.68;101177.19;5034957;27;98613;-75
2023/07/04 10:34:43;;;;;;;4.38;1.67;;;;;;;27.70;33.51;101187.38;5035990;27;98402;-76
2023/07/04 10:37:18;;;;;;;4.70;1.90;;;;;;;27.70;33.70;101179.09;5048064;27;98010;-76
2023/07/04 10:39:46;;;;;;;4.97;1.83;;;;;;;27.70;33.52;101187.38;5026153;27;96700;-76
2023/07/04 10:42:41;;;;;;;4.55;2.00;;;;;;;27.72;33.59;101192.69;5048588;27;98554;-76
2023/07/04 10:45:13;;;;;;;5.53;1.95;;;;;;;27.69;33.46;101205.00;5051346;27;100579;-76
2023/07/04 10:47:41;;;;;;;3.63;1.60;;;;;;;27.70;33.30;101189.28;5052177;27;97640;-76
2023/07/04 10:50:16;;;;;;;4.47;1.92;;;;;;;27.71;33.40;101191.00;5035584;27;97323;-76
2023/07/04 10:52:44;;;;;;;;;;;;;;;27.66;33.50;101182.50;5045746;27;96654;-76
2023/07/04 10:55:18;;;;;;;5.15;1.75;;;;;;;27.65;33.32;101184.41;5041530;27;97012;-78
2023/07/04 10:57:56;;;;;;;3.72;1.70;;;;;;;27.67;33.30;101186.97;5046452;27;96665;-77
2023/07/04 11:00:30;;;;;;;3.80;1.80;;;;;;;27.68;33.13;101192.25;5048163;27;97250;-77
2023/07/04 11:03:24;;;;;;;3.47;1.60;;;;;;;27.70;33.14;101189.28;5053119;27;97183;-77
2023/07/04 11:05:55;;;;;;;3.83;1.83;;;;;;;27.68;33.20;101188.66;5051435;27;98573;-77
2023/07/04 11:08:26;;;;;;;3.92;1.85;;;;;;;27.68;33.09;101186.75;5034586;27;100416;-77
2023/07/04 11:11:06;;;;;;;4.28;1.70;;;;;;;27.70;32.96;101209.47;5051448;27;96855;-76
2023/07/04 11:13:33;;;;;;;4.30;1.88;;;;;;;27.68;33.08;101195.03;5032893;27;98684;-76
2023/07/04 11:16:05;;;;;;;4.15;1.70;;;;;;;27.70;33.07;101197.56;5031988;27;99807;-77
2023/07/04 11:18:38;;;;;;;3.42;1.70;;;;;;;27.70;32.85;101195.66;5056135;27;99396;-76
2023/07/04 11:21:16;;;;;;;4.05;1.45;;;;;;;27.70;32.88;101189.28;5044372;27;96816;-76
2023/07/04 11:23:48;;;;;;;4.90;1.88;;;;;;;27.70;32.84;101187.38;5048942;27;97393;-77
2023/07/04 11:26:18;;;;;;;4.30;1.75;;;;;;;27.70;32.88;101190.13;5045302;27;96868;-76
2023/07/04 11:28:47;;;;;;;4.43;1.75;;;;;;;27.69;32.82;101193.97;5047318;27;98231;-76
2023/07/04 11:31:23;;;;;;;6.03;1.60;;;;;;;27.70;32.67;101190.13;5050483;27;96768;-78
2023/07/04 11:33:53;;;;;;;4.07;1.92;;;;;;;27.70;32.70;101192.91;5039149;27;96794;-78
2023/07/04 11:36:25;;;;;;;5.00;2.17;;;;;;;27.70;32.60;101190.13;5047118;27;97210;-79
2023/07/04 11:38:56;;;;;;;3.22;1.35;;;;;;;27.69;32.63;101188.44;5034551;27;99297;-78